createdAt,value
2022-09-11T00:00:09.705Z,49.25
2022-09-11T00:02:41.730Z,43.75
2022-09-11T00:05:11.764Z,45.75
2022-09-11T00:07:41.068Z,41.50
2022-09-11T00:10:10.678Z,45.50
2022-09-11T00:12:40.135Z,43.25
2022-09-11T00:15:09.688Z,47.75
2022-09-11T00:17:39.021Z,42.25
2022-09-11T00:20:08.482Z,44.25
2022-09-11T00:22:37.932Z,48.50
2022-09-11T00:25:07.630Z,46.25
2022-09-11T00:27:37.055Z,42.50
2022-09-11T00:30:06.621Z,45.50
2022-09-11T00:32:35.997Z,43.50
2022-09-11T00:35:05.778Z,44.25
2022-09-11T00:37:35.041Z,44.75
2022-09-11T00:40:04.646Z,44.00
2022-09-11T00:42:34.068Z,45.50
2022-09-11T00:45:05.145Z,44.00
2022-09-11T00:47:35.570Z,47.25
2022-09-11T00:50:09.900Z,47.50
2022-09-11T00:52:42.576Z,47.00
2022-09-11T00:55:17.643Z,52.50
2022-09-11T00:57:51.632Z,45.75
2022-09-11T01:00:21.464Z,48.00
2022-09-11T01:02:51.932Z,51.75
2022-09-11T01:05:23.638Z,49.25
2022-09-11T01:07:55.810Z,50.25
2022-09-11T01:10:33.129Z,46.00
2022-09-11T01:13:09.378Z,54.25
2022-09-11T01:15:42.002Z,44.50
2022-09-11T01:18:17.139Z,50.00
2022-09-11T01:20:55.770Z,49.00
2022-09-11T01:23:44.893Z,49.75
2022-09-11T01:26:14.310Z,52.00
2022-09-11T01:28:49.643Z,51.50
2022-09-11T01:31:22.123Z,48.25
2022-09-11T01:34:02.005Z,47.25
2022-09-11T01:36:35.526Z,51.50
2022-09-11T01:39:06.495Z,50.50
2022-09-11T01:41:36.343Z,53.25
2022-09-11T01:44:13.914Z,47.50
2022-09-11T01:46:48.959Z,52.25
2022-09-11T01:49:28.853Z,52.50
2022-09-11T01:52:00.882Z,48.25
2022-09-11T01:54:44.128Z,49.00
2022-09-11T01:57:21.370Z,51.25
2022-09-11T01:59:56.884Z,46.00
2022-09-11T02:02:36.642Z,50.50
2022-09-11T02:05:13.849Z,50.25
2022-09-11T02:08:03.431Z,50.25
2022-09-11T02:10:38.484Z,50.75
2022-09-11T02:13:14.199Z,49.00
2022-09-11T02:15:51.469Z,49.75
2022-09-11T02:18:28.225Z,51.00
2022-09-11T02:20:59.689Z,51.00
2022-09-11T02:23:29.224Z,53.75
2022-09-11T02:25:59.450Z,55.50
2022-09-11T02:28:30.407Z,53.25
2022-09-11T02:31:01.500Z,52.00
2022-09-11T02:33:30.829Z,54.25
2022-09-11T02:36:18.204Z,59.75
2022-09-11T02:39:14.102Z,57.50
2022-09-11T02:41:43.349Z,50.75
2022-09-11T02:44:29.992Z,61.00
2022-09-11T02:47:07.809Z,58.25
2022-09-11T02:49:56.735Z,55.25
2022-09-11T02:52:45.375Z,57.25
2022-09-11T02:55:20.903Z,55.75
2022-09-11T02:58:04.271Z,56.75
2022-09-11T03:00:34.968Z,54.00
2022-09-11T03:03:05.627Z,55.00
2022-09-11T03:05:35.149Z,56.00
2022-09-11T03:08:05.677Z,57.00
2022-09-11T03:10:35.661Z,54.25
2022-09-11T03:13:04.929Z,56.75
2022-09-11T03:15:35.561Z,57.00
2022-09-11T03:18:07.570Z,54.50
2022-09-11T03:20:37.930Z,55.25
2022-09-11T03:23:11.963Z,55.50
2022-09-11T03:25:42.281Z,56.00
2022-09-11T03:28:12.497Z,56.25
2022-09-11T03:30:46.326Z,55.00
2022-09-11T03:33:19.321Z,58.00
2022-09-11T03:35:49.021Z,53.75
2022-09-11T03:38:19.422Z,55.00
2022-09-11T03:40:48.866Z,55.75
2022-09-11T03:43:18.198Z,56.00
2022-09-11T03:45:51.082Z,51.25
2022-09-11T03:48:20.532Z,52.25
2022-09-11T03:50:49.991Z,51.50
2022-09-11T03:53:19.803Z,58.00
2022-09-11T03:55:51.325Z,54.50
2022-09-11T03:58:21.456Z,51.00
2022-09-11T04:00:50.846Z,55.50
2022-09-11T04:03:20.541Z,51.75
2022-09-11T04:06:03.487Z,54.75
2022-09-11T04:08:36.044Z,54.00
2022-09-11T04:11:07.393Z,52.00
2022-09-11T04:13:40.136Z,53.25
2022-09-11T04:16:18.260Z,55.25
2022-09-11T04:18:54.798Z,51.50
2022-09-11T04:21:26.128Z,53.50
2022-09-11T04:23:59.154Z,56.75
2022-09-11T04:26:31.599Z,57.00
2022-09-11T04:29:18.133Z,52.25
2022-09-11T04:31:49.018Z,58.00
2022-09-11T04:34:19.614Z,62.00
2022-09-11T04:36:48.914Z,60.50
2022-09-11T04:39:22.174Z,58.00
2022-09-11T04:41:52.057Z,61.00
2022-09-11T04:44:21.952Z,63.75
2022-09-11T04:46:51.515Z,62.25
2022-09-11T04:49:27.668Z,62.75
2022-09-11T04:51:59.099Z,62.75
2022-09-11T04:54:29.715Z,61.00
2022-09-11T04:56:59.216Z,58.25
2022-09-11T04:59:29.032Z,56.50
2022-09-11T05:02:07.610Z,57.25
2022-09-11T05:04:41.516Z,60.00
2022-09-11T05:07:16.833Z,55.75
2022-09-11T05:09:50.109Z,58.75
2022-09-11T05:12:20.881Z,57.25
2022-09-11T05:14:50.232Z,58.25
2022-09-11T05:17:19.823Z,58.25
2022-09-11T05:19:50.691Z,56.00
2022-09-11T05:22:24.601Z,60.75
2022-09-11T05:24:59.612Z,57.00
2022-09-11T05:27:30.480Z,58.25
2022-09-11T05:30:01.181Z,72.25
2022-09-11T05:32:33.389Z,65.50
2022-09-11T05:35:04.451Z,65.25
2022-09-11T05:37:34.189Z,75.50
2022-09-11T05:40:05.786Z,76.50
2022-09-11T05:42:35.448Z,71.25
2022-09-11T05:45:05.303Z,66.25
2022-09-11T05:47:36.437Z,71.25
2022-09-11T05:50:06.475Z,71.25
2022-09-11T05:52:36.898Z,87.25
2022-09-11T05:55:08.573Z,88.25
2022-09-11T05:57:39.487Z,80.75
2022-09-11T06:00:10.258Z,74.75
2022-09-11T06:02:52.439Z,73.75
2022-09-11T06:05:22.719Z,75.25
2022-09-11T06:07:53.244Z,70.00
2022-09-11T06:10:23.962Z,69.00
2022-09-11T06:12:56.241Z,71.25
2022-09-11T06:15:45.798Z,66.00
2022-09-11T06:18:18.882Z,68.00
2022-09-11T06:21:00.581Z,68.75
2022-09-11T06:23:36.428Z,65.25
2022-09-11T06:26:07.710Z,66.50
2022-09-11T06:28:40.243Z,66.50
2022-09-11T06:31:15.162Z,67.00
2022-09-11T06:33:45.955Z,67.75
2022-09-11T06:36:17.677Z,69.75
2022-09-11T06:38:48.423Z,70.50
2022-09-11T06:41:21.833Z,70.00
2022-09-11T06:43:52.103Z,67.75
2022-09-11T06:46:24.827Z,65.50
2022-09-11T06:48:59.050Z,65.75
2022-09-11T06:51:30.569Z,65.75
2022-09-11T06:54:03.598Z,66.25
2022-09-11T06:56:37.195Z,66.50
2022-09-11T06:59:07.338Z,74.75
2022-09-11T07:01:36.907Z,67.50
2022-09-11T07:04:06.472Z,67.50
2022-09-11T07:06:37.402Z,65.25
2022-09-11T07:09:07.981Z,73.50
2022-09-11T07:11:48.203Z,78.75
2022-09-11T07:14:23.017Z,94.75
2022-09-11T07:16:58.460Z,75.50
2022-09-11T07:19:30.152Z,78.00
2022-09-11T07:22:00.914Z,77.00
2022-09-11T07:24:31.448Z,75.50
2022-09-11T07:27:02.501Z,73.25
2022-09-11T07:29:37.081Z,71.00
2022-09-11T07:32:08.503Z,69.25
2022-09-11T07:34:38.809Z,69.75
2022-09-11T07:37:11.676Z,67.25
2022-09-11T07:39:43.015Z,67.50
2022-09-11T07:42:21.281Z,69.75
2022-09-11T07:44:52.228Z,67.25
2022-09-11T07:47:22.533Z,64.75
2022-09-11T07:49:54.456Z,71.00
2022-09-11T07:52:26.620Z,69.50
2022-09-11T07:55:02.720Z,67.75
2022-09-11T07:57:36.436Z,68.50
2022-09-11T08:00:12.782Z,70.00
2022-09-11T08:03:01.793Z,68.25
2022-09-11T08:05:40.927Z,68.00
2022-09-11T08:08:13.699Z,70.75
2022-09-11T08:10:44.217Z,68.00
2022-09-11T08:13:18.156Z,69.75
2022-09-11T08:15:50.692Z,63.75
2022-09-11T08:18:22.611Z,68.50
2022-09-11T08:20:52.693Z,67.00
2022-09-11T08:23:24.506Z,67.50
2022-09-11T08:25:55.141Z,66.50
2022-09-11T08:28:25.600Z,69.25
2022-09-11T08:31:00.863Z,67.00
2022-09-11T08:33:32.019Z,72.50
2022-09-11T08:36:03.610Z,65.25
2022-09-11T08:38:37.895Z,67.00
2022-09-11T08:41:13.901Z,67.50
2022-09-11T08:43:50.380Z,65.75
2022-09-11T08:46:24.522Z,67.75
2022-09-11T08:49:09.268Z,68.00
2022-09-11T08:51:42.037Z,65.25
2022-09-11T08:54:28.948Z,65.50
2022-09-11T08:57:27.660Z,63.25
2022-09-11T09:00:01.820Z,64.50
2022-09-11T09:02:40.589Z,63.75
2022-09-11T09:05:10.676Z,63.00
2022-09-11T09:07:51.596Z,63.00
2022-09-11T09:10:34.196Z,65.50
2022-09-11T09:13:12.613Z,63.25
2022-09-11T09:15:49.530Z,63.00
2022-09-11T09:18:28.028Z,58.25
2022-09-11T09:21:28.527Z,62.25
2022-09-11T09:23:59.371Z,63.50
2022-09-11T09:26:41.214Z,62.50
2022-09-11T09:29:20.455Z,62.00
2022-09-11T09:31:53.462Z,59.00
2022-09-11T09:34:25.756Z,59.25
2022-09-11T09:37:00.371Z,60.25
2022-09-11T09:39:30.632Z,60.50
2022-09-11T09:42:06.446Z,61.00
2022-09-11T09:44:44.224Z,61.25
2022-09-11T09:47:15.002Z,61.00
2022-09-11T09:49:45.861Z,60.25
2022-09-11T09:52:20.472Z,62.75
2022-09-11T09:54:55.700Z,62.00
2022-09-11T09:57:35.694Z,58.25
2022-09-11T10:00:08.636Z,58.50
2022-09-11T10:02:44.676Z,57.00
2022-09-11T10:05:20.553Z,60.25
2022-09-11T10:07:51.530Z,58.25
2022-09-11T10:10:28.656Z,60.75
2022-09-11T10:13:18.447Z,61.75
2022-09-11T10:15:50.766Z,59.75
2022-09-11T10:18:33.615Z,68.00
2022-09-11T10:21:15.680Z,65.75
2022-09-11T10:24:04.769Z,62.00
2022-09-11T10:26:42.467Z,64.00
2022-09-11T10:29:15.004Z,66.75
2022-09-11T10:31:51.193Z,65.75
2022-09-11T10:34:22.260Z,65.25
2022-09-11T10:37:03.140Z,67.75
2022-09-11T10:39:33.994Z,69.50
2022-09-11T10:42:13.431Z,68.25
2022-09-11T10:44:45.104Z,66.00
2022-09-11T10:47:14.879Z,64.50
2022-09-11T10:49:44.165Z,64.50
2022-09-11T10:52:13.444Z,66.00
2022-09-11T10:55:02.058Z,65.75
2022-09-11T10:57:45.956Z,65.50
2022-09-11T11:00:22.740Z,67.00
2022-09-11T11:02:53.966Z,67.50
2022-09-11T11:05:43.712Z,67.25
2022-09-11T11:08:21.159Z,70.75
2022-09-11T11:10:52.789Z,68.75
2022-09-11T11:13:34.524Z,69.50
2022-09-11T11:16:22.384Z,65.25
2022-09-11T11:18:53.363Z,67.00
2022-09-11T11:21:32.512Z,64.75
2022-09-11T11:24:03.005Z,67.50
2022-09-11T11:26:38.728Z,68.25
2022-09-11T11:29:15.660Z,69.50
2022-09-11T11:31:57.839Z,68.75
2022-09-11T11:34:30.387Z,65.25
2022-09-11T11:37:15.732Z,72.25
2022-09-11T11:39:51.542Z,66.75
2022-09-11T11:42:21.536Z,70.25
2022-09-11T11:44:50.891Z,67.50
2022-09-11T11:47:26.720Z,71.50
2022-09-11T11:50:06.182Z,67.25
2022-09-11T11:52:39.096Z,66.00
2022-09-11T11:55:18.643Z,68.00
2022-09-11T11:58:23.573Z,70.00
2022-09-11T12:00:59.398Z,66.00
2022-09-11T12:03:38.607Z,66.00
2022-09-11T12:06:11.618Z,70.25
2022-09-11T12:08:45.685Z,69.50
2022-09-11T12:11:17.732Z,70.75
2022-09-11T12:13:50.103Z,67.75
2022-09-11T12:16:26.512Z,65.50
2022-09-11T12:19:06.250Z,67.25
2022-09-11T12:21:39.557Z,65.50
2022-09-11T12:24:10.782Z,69.25
2022-09-11T12:26:40.519Z,66.50
2022-09-11T12:29:21.633Z,68.00
2022-09-11T12:31:51.526Z,70.50
2022-09-11T12:34:39.714Z,66.25
2022-09-11T12:37:15.118Z,69.50
2022-09-11T12:39:55.551Z,65.50
2022-09-11T12:42:26.236Z,67.50
2022-09-11T12:44:56.687Z,67.75
2022-09-11T12:47:38.615Z,66.50
2022-09-11T12:50:08.861Z,67.50
2022-09-11T12:52:47.687Z,61.75
2022-09-11T12:55:36.230Z,69.25
2022-09-11T12:58:08.020Z,66.00
2022-09-11T13:00:40.887Z,65.00
2022-09-11T13:03:23.117Z,65.25
2022-09-11T13:06:12.522Z,65.25
2022-09-11T13:08:49.261Z,66.75
2022-09-11T13:11:37.445Z,63.75
2022-09-11T13:14:30.337Z,67.50
2022-09-11T13:17:01.488Z,66.75
2022-09-11T13:19:35.562Z,65.75
2022-09-11T13:22:22.115Z,68.25
2022-09-11T13:24:53.792Z,65.00
2022-09-11T13:27:28.167Z,65.75
2022-09-11T13:29:58.805Z,66.75
2022-09-11T13:32:28.896Z,65.25
2022-09-11T13:35:03.280Z,69.25
2022-09-11T13:37:36.790Z,64.00
2022-09-11T13:40:08.482Z,67.50
2022-09-11T13:42:38.617Z,65.25
2022-09-11T13:45:09.526Z,65.25
2022-09-11T13:47:42.744Z,67.25
2022-09-11T13:50:15.372Z,67.75
2022-09-11T13:52:47.069Z,65.25
2022-09-11T13:55:22.195Z,66.50
2022-09-11T13:58:13.312Z,65.25
2022-09-11T14:00:52.550Z,65.00
2022-09-11T14:03:34.177Z,66.25
2022-09-11T14:06:06.188Z,67.25
2022-09-11T14:08:36.899Z,68.25
2022-09-11T14:11:11.545Z,69.50
2022-09-11T14:13:47.690Z,68.25
2022-09-11T14:16:17.608Z,68.50
2022-09-11T14:18:57.100Z,63.50
2022-09-11T14:21:32.837Z,67.50
2022-09-11T14:24:03.902Z,68.75
2022-09-11T14:26:35.389Z,67.75
2022-09-11T14:29:24.771Z,64.25
2022-09-11T14:31:55.038Z,69.00
2022-09-11T14:34:29.598Z,68.75
2022-09-11T14:37:01.460Z,68.00
2022-09-11T14:39:58.145Z,68.00
2022-09-11T14:42:30.590Z,64.00
2022-09-11T14:45:00.820Z,68.50
2022-09-11T14:47:30.980Z,70.00
2022-09-11T14:50:02.448Z,67.50
2022-09-11T14:52:33.814Z,69.75
2022-09-11T14:55:04.726Z,68.75
2022-09-11T14:57:36.097Z,67.75
2022-09-11T15:00:06.779Z,70.00
2022-09-11T15:02:36.646Z,70.00
2022-09-11T15:05:09.387Z,70.50
2022-09-11T15:07:42.005Z,73.50
2022-09-11T15:10:12.324Z,69.50
2022-09-11T15:12:42.575Z,68.00
2022-09-11T15:15:14.487Z,67.75
2022-09-11T15:17:44.202Z,70.00
2022-09-11T15:20:13.980Z,68.75
2022-09-11T15:22:45.068Z,67.00
2022-09-11T15:25:15.276Z,73.00
2022-09-11T15:27:44.959Z,70.25
2022-09-11T15:30:18.084Z,67.75
2022-09-11T15:32:48.964Z,71.00
2022-09-11T15:35:19.830Z,69.50
2022-09-11T15:37:51.443Z,71.75
2022-09-11T15:40:22.651Z,69.00
2022-09-11T15:42:53.192Z,69.75
2022-09-11T15:45:24.378Z,69.50
2022-09-11T15:47:54.348Z,67.00
2022-09-11T15:50:31.051Z,67.25
2022-09-11T15:53:00.852Z,69.00
2022-09-11T15:55:32.060Z,70.00
2022-09-11T15:58:02.734Z,69.00
2022-09-11T16:00:33.099Z,67.50
2022-09-11T16:03:04.080Z,66.00
2022-09-11T16:05:35.911Z,72.25
2022-09-11T16:08:05.519Z,70.75
2022-09-11T16:10:39.544Z,66.00
2022-09-11T16:13:09.656Z,68.00
2022-09-11T16:15:39.311Z,68.25
2022-09-11T16:18:10.179Z,68.00
2022-09-11T16:20:45.140Z,69.75
2022-09-11T16:23:16.203Z,69.75
2022-09-11T16:25:46.245Z,70.25
2022-09-11T16:28:16.089Z,66.50
2022-09-11T16:30:48.472Z,66.50
2022-09-11T16:33:21.348Z,70.50
2022-09-11T16:36:02.241Z,68.00
2022-09-11T16:38:31.953Z,69.00
2022-09-11T16:41:14.071Z,70.75
2022-09-11T16:43:46.220Z,68.75
2022-09-11T16:46:16.906Z,71.25
2022-09-11T16:48:51.893Z,70.75
2022-09-11T16:51:24.920Z,71.50
2022-09-11T16:53:55.773Z,66.00
2022-09-11T16:56:26.003Z,68.50
2022-09-11T16:58:56.092Z,69.25
2022-09-11T17:01:27.684Z,66.00
2022-09-11T17:03:59.389Z,64.75
2022-09-11T17:06:31.502Z,68.50
2022-09-11T17:09:02.833Z,70.75
2022-09-11T17:11:33.304Z,68.25
2022-09-11T17:14:04.156Z,67.50
2022-09-11T17:16:35.514Z,70.50
2022-09-11T17:19:06.684Z,67.50
2022-09-11T17:21:40.726Z,69.50
2022-09-11T17:24:10.904Z,67.75
2022-09-11T17:26:40.779Z,68.00
2022-09-11T17:29:10.228Z,68.50
2022-09-11T17:31:39.642Z,66.75
2022-09-11T17:34:09.639Z,70.25
2022-09-11T17:36:39.048Z,69.25
2022-09-11T17:39:08.603Z,68.25
2022-09-11T17:41:38.146Z,68.00
2022-09-11T17:44:08.422Z,70.00
2022-09-11T17:46:37.946Z,69.00
2022-09-11T17:49:07.419Z,69.75
2022-09-11T17:51:37.021Z,67.50
2022-09-11T17:54:06.367Z,65.50
2022-09-11T17:56:35.652Z,71.00
2022-09-11T17:59:04.994Z,69.50
2022-09-11T18:01:34.319Z,71.25
2022-09-11T18:04:03.684Z,69.75
2022-09-11T18:06:37.535Z,69.00
2022-09-11T18:09:15.019Z,65.50
2022-09-11T18:11:45.716Z,69.75
2022-09-11T18:14:15.637Z,69.00
2022-09-11T18:16:46.506Z,70.50
2022-09-11T18:19:17.531Z,69.00
2022-09-11T18:21:50.151Z,70.00
2022-09-11T18:24:22.201Z,68.50
2022-09-11T18:26:55.055Z,67.25
2022-09-11T18:29:27.132Z,70.25
2022-09-11T18:31:56.688Z,68.25
2022-09-11T18:34:27.477Z,70.75
2022-09-11T18:36:56.926Z,67.75
2022-09-11T18:39:27.576Z,67.50
2022-09-11T18:41:57.108Z,66.50
2022-09-11T18:44:26.427Z,67.00
2022-09-11T18:46:56.249Z,65.00
2022-09-11T18:49:25.879Z,69.00
2022-09-11T18:51:55.085Z,70.25
2022-09-11T18:54:24.909Z,69.50
2022-09-11T18:56:54.286Z,65.75
2022-09-11T18:59:23.709Z,71.25
2022-09-11T19:01:53.162Z,69.00
2022-09-11T19:04:22.591Z,71.25
2022-09-11T19:06:51.883Z,70.00
2022-09-11T19:09:21.131Z,69.00
2022-09-11T19:11:50.786Z,68.00
2022-09-11T19:14:20.219Z,69.00
2022-09-11T19:16:50.484Z,73.75
2022-09-11T19:19:19.819Z,69.25
2022-09-11T19:21:49.894Z,68.00
2022-09-11T19:24:20.506Z,70.25
2022-09-11T19:26:52.232Z,67.75
2022-09-11T19:29:23.988Z,69.25
2022-09-11T19:31:54.629Z,68.50
2022-09-11T19:34:26.974Z,74.25
2022-09-11T19:36:57.257Z,66.75
2022-09-11T19:39:28.074Z,68.00
2022-09-11T19:41:59.728Z,69.50
2022-09-11T19:44:29.888Z,70.25
2022-09-11T19:46:59.580Z,71.00
2022-09-11T19:49:30.666Z,69.00
2022-09-11T19:52:00.654Z,73.50
2022-09-11T19:54:32.028Z,69.00
2022-09-11T19:57:03.028Z,69.00
2022-09-11T19:59:33.968Z,70.50
2022-09-11T20:02:03.914Z,74.25
2022-09-11T20:04:34.339Z,70.75
2022-09-11T20:07:04.570Z,74.50
2022-09-11T20:09:33.946Z,71.50
2022-09-11T20:12:03.403Z,76.00
2022-09-11T20:14:32.754Z,76.00
2022-09-11T20:17:02.206Z,72.25
2022-09-11T20:19:31.602Z,72.50
2022-09-11T20:22:00.979Z,77.50
2022-09-11T20:24:30.339Z,77.50
2022-09-11T20:27:00.465Z,77.00
2022-09-11T20:29:29.943Z,77.25
2022-09-11T20:32:00.624Z,78.75
2022-09-11T20:34:30.222Z,91.75
2022-09-11T20:37:01.384Z,92.75
2022-09-11T20:39:30.772Z,76.50
2022-09-11T20:42:00.693Z,78.50
2022-09-11T20:44:33.749Z,74.75
2022-09-11T20:47:05.756Z,79.00
2022-09-11T20:49:35.115Z,82.00
2022-09-11T20:52:05.146Z,84.00
2022-09-11T20:54:34.541Z,77.25
2022-09-11T20:57:03.835Z,85.25
2022-09-11T20:59:33.190Z,76.75
2022-09-11T21:02:03.185Z,78.50
2022-09-11T21:04:33.184Z,76.50
2022-09-11T21:07:02.600Z,76.25
2022-09-11T21:09:32.221Z,79.75
2022-09-11T21:12:01.491Z,77.75
2022-09-11T21:14:30.869Z,76.00
2022-09-11T21:17:00.221Z,80.50
2022-09-11T21:19:29.688Z,78.00
2022-09-11T21:21:59.144Z,78.25
2022-09-11T21:24:28.633Z,80.50
2022-09-11T21:26:57.958Z,80.00
2022-09-11T21:29:27.318Z,77.25
2022-09-11T21:31:56.679Z,76.00
2022-09-11T21:34:26.030Z,81.50
2022-09-11T21:36:55.298Z,77.50
2022-09-11T21:39:24.548Z,80.50
2022-09-11T21:41:53.850Z,81.25
2022-09-11T21:44:23.128Z,80.25
2022-09-11T21:46:52.422Z,78.00
2022-09-11T21:49:21.729Z,76.50
2022-09-11T21:51:51.042Z,78.25
2022-09-11T21:54:20.309Z,80.50
2022-09-11T21:56:50.182Z,80.00
2022-09-11T21:59:19.526Z,79.25
2022-09-11T22:01:49.909Z,83.25
2022-09-11T22:04:19.232Z,78.75
2022-09-11T22:06:48.514Z,86.00
2022-09-11T22:09:21.594Z,76.25
2022-09-11T22:11:51.178Z,77.75
2022-09-11T22:14:21.522Z,79.25
2022-09-11T22:16:50.834Z,83.75
2022-09-11T22:19:20.177Z,82.00
2022-09-11T22:21:49.560Z,83.00
2022-09-11T22:24:20.808Z,77.75
2022-09-11T22:26:50.449Z,84.50
2022-09-11T22:29:19.818Z,76.00
2022-09-11T22:31:49.166Z,85.50
2022-09-11T22:34:19.048Z,81.50
2022-09-11T22:36:48.646Z,83.25
2022-09-11T22:39:18.089Z,80.75
2022-09-11T22:41:47.444Z,77.75
2022-09-11T22:44:17.313Z,82.50
2022-09-11T22:46:48.815Z,85.75
2022-09-11T22:49:18.306Z,85.25
2022-09-11T22:51:47.653Z,87.75
2022-09-11T22:54:18.360Z,83.00
2022-09-11T22:56:47.635Z,85.25
2022-09-11T22:59:16.979Z,79.25
2022-09-11T23:01:46.420Z,82.50
2022-09-11T23:04:15.736Z,76.00
2022-09-11T23:07:02.979Z,75.50
2022-09-11T23:09:32.240Z,77.25
2022-09-11T23:12:02.030Z,73.75
2022-09-11T23:14:31.474Z,75.00
2022-09-11T23:17:01.987Z,70.25
2022-09-11T23:19:31.691Z,71.25
2022-09-11T23:22:00.995Z,70.00
2022-09-11T23:24:30.385Z,71.50
2022-09-11T23:26:59.812Z,67.75
2022-09-11T23:29:29.154Z,69.25
2022-09-11T23:31:58.917Z,69.00
2022-09-11T23:34:28.357Z,65.75
2022-09-11T23:36:57.620Z,67.75
2022-09-11T23:39:27.048Z,63.75
2022-09-11T23:41:56.496Z,67.25
2022-09-11T23:44:25.833Z,63.25
2022-09-11T23:46:55.178Z,66.50
2022-09-11T23:49:24.714Z,70.25
2022-09-11T23:51:54.020Z,72.75
2022-09-11T23:54:25.020Z,72.25
2022-09-11T23:56:55.046Z,70.00
2022-09-11T23:59:24.559Z,74.00
